sensor_id;sensor_type;location;lat;lon;timestamp;P1;durP1;ratioP1;P2;durP2;ratioP2
71464;SDS011;59274;49.874;9.154;2022-09-03T00:00:25;3.90;;;1.50;;
71464;SDS011;59274;49.874;9.154;2022-09-03T00:03:07;3.33;;;1.50;;
71464;SDS011;59274;49.874;9.154;2022-09-03T00:05:46;3.25;;;1.35;;
71464;SDS011;59274;49.874;9.154;2022-09-03T00:14:04;4.00;;;1.70;;
71464;SDS011;59274;49.874;9.154;2022-09-03T00:16:55;4.28;;;1.83;;
71464;SDS011;59274;49.874;9.154;2022-09-03T00:19:26;3.85;;;1.60;;
71464;SDS011;59274;49.874;9.154;2022-09-03T00:22:35;6.57;;;1.83;;
71464;SDS011;59274;49.874;9.154;2022-09-03T00:25:02;3.20;;;1.70;;
71464;SDS011;59274;49.874;9.154;2022-09-03T00:27:30;2.70;;;1.38;;
71464;SDS011;59274;49.874;9.154;2022-09-03T00:30:19;4.32;;;1.70;;
71464;SDS011;59274;49.874;9.154;2022-09-03T00:33:03;4.65;;;2.00;;
71464;SDS011;59274;49.874;9.154;2022-09-03T00:38:15;3.53;;;1.40;;
71464;SDS011;59274;49.874;9.154;2022-09-03T00:46:00;2.75;;;1.58;;
71464;SDS011;59274;49.874;9.154;2022-09-03T00:48:31;4.65;;;1.30;;
71464;SDS011;59274;49.874;9.154;2022-09-03T00:54:10;3.63;;;1.63;;
71464;SDS011;59274;49.874;9.154;2022-09-03T01:07:46;2.38;;;1.42;;
71464;SDS011;59274;49.874;9.154;2022-09-03T01:30:39;3.47;;;1.50;;
71464;SDS011;59274;49.874;9.154;2022-09-03T01:39:16;4.13;;;1.80;;
71464;SDS011;59274;49.874;9.154;2022-09-03T01:45:17;2.83;;;1.40;;
71464;SDS011;59274;49.874;9.154;2022-09-03T01:50:50;4.80;;;1.70;;
71464;SDS011;59274;49.874;9.154;2022-09-03T01:53:33;3.57;;;1.43;;
71464;SDS011;59274;49.874;9.154;2022-09-03T01:58:53;3.15;;;1.48;;
71464;SDS011;59274;49.874;9.154;2022-09-03T02:01:40;3.90;;;1.40;;
71464;SDS011;59274;49.874;9.154;2022-09-03T02:04:18;4.05;;;1.42;;
71464;SDS011;59274;49.874;9.154;2022-09-03T02:06:47;4.60;;;1.80;;
71464;SDS011;59274;49.874;9.154;2022-09-03T02:09:15;4.32;;;1.50;;
71464;SDS011;59274;49.874;9.154;2022-09-03T02:11:41;3.97;;;1.70;;
71464;SDS011;59274;49.874;9.154;2022-09-03T02:14:11;4.65;;;1.67;;
71464;SDS011;59274;49.874;9.154;2022-09-03T02:16:37;4.93;;;1.80;;
71464;SDS011;59274;49.874;9.154;2022-09-03T02:19:07;4.77;;;1.90;;
71464;SDS011;59274;49.874;9.154;2022-09-03T02:21:37;3.53;;;1.70;;
71464;SDS011;59274;49.874;9.154;2022-09-03T02:24:08;3.70;;;1.65;;
71464;SDS011;59274;49.874;9.154;2022-09-03T02:26:34;2.80;;;1.50;;
71464;SDS011;59274;49.874;9.154;2022-09-03T02:29:00;5.43;;;1.75;;
71464;SDS011;59274;49.874;9.154;2022-09-03T02:31:27;5.53;;;2.00;;
71464;SDS011;59274;49.874;9.154;2022-09-03T02:33:53;3.55;;;1.80;;
71464;SDS011;59274;49.874;9.154;2022-09-03T02:36:24;4.22;;;2.15;;
71464;SDS011;59274;49.874;9.154;2022-09-03T02:38:52;4.00;;;1.70;;
71464;SDS011;59274;49.874;9.154;2022-09-03T02:41:18;3.90;;;1.67;;
71464;SDS011;59274;49.874;9.154;2022-09-03T02:46:38;3.85;;;1.75;;
71464;SDS011;59274;49.874;9.154;2022-09-03T02:49:07;3.88;;;1.80;;
71464;SDS011;59274;49.874;9.154;2022-09-03T02:51:38;4.65;;;2.03;;
71464;SDS011;59274;49.874;9.154;2022-09-03T02:54:06;3.53;;;1.70;;
71464;SDS011;59274;49.874;9.154;2022-09-03T02:56:32;3.40;;;1.70;;
71464;SDS011;59274;49.874;9.154;2022-09-03T02:58:58;4.00;;;1.60;;
71464;SDS011;59274;49.874;9.154;2022-09-03T03:01:24;2.43;;;1.37;;
71464;SDS011;59274;49.874;9.154;2022-09-03T03:03:51;3.78;;;1.60;;
71464;SDS011;59274;49.874;9.154;2022-09-03T03:06:17;4.00;;;1.73;;
71464;SDS011;59274;49.874;9.154;2022-09-03T03:08:47;3.15;;;1.73;;
71464;SDS011;59274;49.874;9.154;2022-09-03T03:11:14;4.63;;;1.70;;
71464;SDS011;59274;49.874;9.154;2022-09-03T03:13:42;4.87;;;2.10;;
71464;SDS011;59274;49.874;9.154;2022-09-03T03:16:10;5.05;;;1.92;;
71464;SDS011;59274;49.874;9.154;2022-09-03T03:18:36;3.75;;;1.77;;
71464;SDS011;59274;49.874;9.154;2022-09-03T03:21:06;4.40;;;2.00;;
71464;SDS011;59274;49.874;9.154;2022-09-03T03:23:34;3.80;;;1.73;;
71464;SDS011;59274;49.874;9.154;2022-09-03T03:26:01;5.10;;;2.00;;
71464;SDS011;59274;49.874;9.154;2022-09-03T03:28:27;5.10;;;1.90;;
71464;SDS011;59274;49.874;9.154;2022-09-03T03:30:56;4.57;;;1.65;;
71464;SDS011;59274;49.874;9.154;2022-09-03T03:33:22;4.45;;;1.50;;
71464;SDS011;59274;49.874;9.154;2022-09-03T03:35:47;4.40;;;1.70;;
71464;SDS011;59274;49.874;9.154;2022-09-03T03:38:13;4.60;;;1.80;;
71464;SDS011;59274;49.874;9.154;2022-09-03T03:40:38;3.88;;;1.73;;
71464;SDS011;59274;49.874;9.154;2022-09-03T03:43:04;5.07;;;1.67;;
71464;SDS011;59274;49.874;9.154;2022-09-03T03:45:30;6.70;;;1.77;;
71464;SDS011;59274;49.874;9.154;2022-09-03T03:47:56;4.00;;;1.90;;
71464;SDS011;59274;49.874;9.154;2022-09-03T03:50:23;7.93;;;1.80;;
71464;SDS011;59274;49.874;9.154;2022-09-03T03:52:49;5.97;;;2.20;;
71464;SDS011;59274;49.874;9.154;2022-09-03T03:55:15;3.80;;;1.80;;
71464;SDS011;59274;49.874;9.154;2022-09-03T03:57:40;3.80;;;1.90;;
71464;SDS011;59274;49.874;9.154;2022-09-03T04:00:06;3.60;;;2.03;;
71464;SDS011;59274;49.874;9.154;2022-09-03T04:02:32;5.43;;;2.20;;
71464;SDS011;59274;49.874;9.154;2022-09-03T04:04:58;4.50;;;1.95;;
71464;SDS011;59274;49.874;9.154;2022-09-03T04:07:24;5.30;;;2.20;;
71464;SDS011;59274;49.874;9.154;2022-09-03T04:09:49;3.88;;;2.30;;
71464;SDS011;59274;49.874;9.154;2022-09-03T04:12:15;4.37;;;2.00;;
71464;SDS011;59274;49.874;9.154;2022-09-03T04:14:41;7.95;;;2.50;;
71464;SDS011;59274;49.874;9.154;2022-09-03T04:17:07;4.60;;;1.93;;
71464;SDS011;59274;49.874;9.154;2022-09-03T04:19:32;5.30;;;2.20;;
71464;SDS011;59274;49.874;9.154;2022-09-03T04:21:58;5.43;;;2.10;;
71464;SDS011;59274;49.874;9.154;2022-09-03T04:24:23;4.47;;;2.10;;
71464;SDS011;59274;49.874;9.154;2022-09-03T04:26:48;5.73;;;2.07;;
71464;SDS011;59274;49.874;9.154;2022-09-03T04:29:14;4.53;;;2.00;;
71464;SDS011;59274;49.874;9.154;2022-09-03T04:31:40;3.83;;;1.90;;
71464;SDS011;59274;49.874;9.154;2022-09-03T04:34:26;5.72;;;2.53;;
71464;SDS011;59274;49.874;9.154;2022-09-03T04:36:51;5.20;;;2.50;;
71464;SDS011;59274;49.874;9.154;2022-09-03T04:39:17;5.30;;;2.50;;
71464;SDS011;59274;49.874;9.154;2022-09-03T04:41:42;5.20;;;2.40;;
71464;SDS011;59274;49.874;9.154;2022-09-03T04:44:08;4.70;;;2.53;;
71464;SDS011;59274;49.874;9.154;2022-09-03T04:46:34;5.82;;;2.20;;
71464;SDS011;59274;49.874;9.154;2022-09-03T04:48:59;5.17;;;2.57;;
71464;SDS011;59274;49.874;9.154;2022-09-03T04:51:26;5.90;;;2.30;;
71464;SDS011;59274;49.874;9.154;2022-09-03T04:53:56;3.85;;;2.08;;
71464;SDS011;59274;49.874;9.154;2022-09-03T04:56:26;4.43;;;2.13;;
71464;SDS011;59274;49.874;9.154;2022-09-03T04:58:54;3.50;;;1.85;;
71464;SDS011;59274;49.874;9.154;2022-09-03T05:01:22;4.50;;;1.90;;
71464;SDS011;59274;49.874;9.154;2022-09-03T05:03:50;3.47;;;1.98;;
71464;SDS011;59274;49.874;9.154;2022-09-03T05:06:18;6.28;;;2.60;;
71464;SDS011;59274;49.874;9.154;2022-09-03T05:08:47;6.70;;;2.57;;
71464;SDS011;59274;49.874;9.154;2022-09-03T05:11:13;6.68;;;2.50;;
71464;SDS011;59274;49.874;9.154;2022-09-03T05:13:39;7.87;;;2.27;;
71464;SDS011;59274;49.874;9.154;2022-09-03T05:16:06;3.63;;;1.75;;
71464;SDS011;59274;49.874;9.154;2022-09-03T05:18:33;4.10;;;1.60;;
71464;SDS011;59274;49.874;9.154;2022-09-03T05:21:03;3.60;;;1.50;;
71464;SDS011;59274;49.874;9.154;2022-09-03T05:23:33;2.83;;;1.50;;
71464;SDS011;59274;49.874;9.154;2022-09-03T05:26:01;3.20;;;1.70;;
71464;SDS011;59274;49.874;9.154;2022-09-03T05:28:30;3.05;;;1.70;;
71464;SDS011;59274;49.874;9.154;2022-09-03T05:30:59;3.67;;;1.73;;
71464;SDS011;59274;49.874;9.154;2022-09-03T05:33:26;3.88;;;1.70;;
71464;SDS011;59274;49.874;9.154;2022-09-03T05:35:52;3.08;;;1.50;;
71464;SDS011;59274;49.874;9.154;2022-09-03T05:38:22;3.67;;;1.60;;
71464;SDS011;59274;49.874;9.154;2022-09-03T05:40:48;4.07;;;1.47;;
71464;SDS011;59274;49.874;9.154;2022-09-03T05:43:13;5.45;;;1.70;;
71464;SDS011;59274;49.874;9.154;2022-09-03T05:45:41;3.93;;;1.67;;
71464;SDS011;59274;49.874;9.154;2022-09-03T05:48:06;4.30;;;1.50;;
71464;SDS011;59274;49.874;9.154;2022-09-03T05:50:32;4.43;;;1.70;;
71464;SDS011;59274;49.874;9.154;2022-09-03T05:52:57;3.20;;;1.80;;
71464;SDS011;59274;49.874;9.154;2022-09-03T05:55:24;3.78;;;1.60;;
71464;SDS011;59274;49.874;9.154;2022-09-03T05:57:52;4.07;;;1.60;;
71464;SDS011;59274;49.874;9.154;2022-09-03T06:00:18;3.47;;;1.53;;
71464;SDS011;59274;49.874;9.154;2022-09-03T06:02:53;3.00;;;1.40;;
71464;SDS011;59274;49.874;9.154;2022-09-03T06:05:19;2.55;;;1.50;;
71464;SDS011;59274;49.874;9.154;2022-09-03T06:07:44;4.47;;;1.70;;
71464;SDS011;59274;49.874;9.154;2022-09-03T06:10:13;3.95;;;1.65;;
71464;SDS011;59274;49.874;9.154;2022-09-03T06:12:41;2.80;;;1.40;;
71464;SDS011;59274;49.874;9.154;2022-09-03T06:15:09;7.05;;;1.80;;
71464;SDS011;59274;49.874;9.154;2022-09-03T06:17:36;3.65;;;1.40;;
71464;SDS011;59274;49.874;9.154;2022-09-03T06:20:02;3.17;;;1.60;;
71464;SDS011;59274;49.874;9.154;2022-09-03T06:22:28;4.55;;;1.58;;
71464;SDS011;59274;49.874;9.154;2022-09-03T06:24:55;5.97;;;1.75;;
71464;SDS011;59274;49.874;9.154;2022-09-03T06:27:21;3.33;;;1.60;;
71464;SDS011;59274;49.874;9.154;2022-09-03T06:29:46;5.10;;;1.75;;
71464;SDS011;59274;49.874;9.154;2022-09-03T06:32:12;2.30;;;1.40;;
71464;SDS011;59274;49.874;9.154;2022-09-03T06:34:38;4.90;;;1.40;;
71464;SDS011;59274;49.874;9.154;2022-09-03T06:37:04;4.80;;;1.70;;
71464;SDS011;59274;49.874;9.154;2022-09-03T06:39:29;4.28;;;1.80;;
71464;SDS011;59274;49.874;9.154;2022-09-03T06:41:55;5.07;;;1.60;;
71464;SDS011;59274;49.874;9.154;2022-09-03T06:44:20;6.25;;;1.70;;
71464;SDS011;59274;49.874;9.154;2022-09-03T06:46:46;3.10;;;1.67;;
71464;SDS011;59274;49.874;9.154;2022-09-03T06:49:12;3.28;;;1.60;;
71464;SDS011;59274;49.874;9.154;2022-09-03T06:51:38;3.15;;;1.63;;
71464;SDS011;59274;49.874;9.154;2022-09-03T06:54:08;4.47;;;1.77;;
71464;SDS011;59274;49.874;9.154;2022-09-03T06:56:36;7.82;;;1.80;;
71464;SDS011;59274;49.874;9.154;2022-09-03T06:59:04;3.10;;;1.50;;
71464;SDS011;59274;49.874;9.154;2022-09-03T07:01:32;3.10;;;1.60;;
71464;SDS011;59274;49.874;9.154;2022-09-03T07:04:00;3.13;;;1.80;;
71464;SDS011;59274;49.874;9.154;2022-09-03T07:06:28;2.33;;;1.30;;
71464;SDS011;59274;49.874;9.154;2022-09-03T07:08:55;4.07;;;1.52;;
71464;SDS011;59274;49.874;9.154;2022-09-03T07:11:22;3.42;;;1.90;;
71464;SDS011;59274;49.874;9.154;2022-09-03T07:13:50;3.72;;;1.63;;
71464;SDS011;59274;49.874;9.154;2022-09-03T07:16:25;3.78;;;1.60;;
71464;SDS011;59274;49.874;9.154;2022-09-03T07:18:53;3.47;;;1.70;;
71464;SDS011;59274;49.874;9.154;2022-09-03T07:21:25;5.00;;;1.67;;
71464;SDS011;59274;49.874;9.154;2022-09-03T07:23:52;3.92;;;1.80;;
71464;SDS011;59274;49.874;9.154;2022-09-03T07:26:20;4.95;;;2.08;;
71464;SDS011;59274;49.874;9.154;2022-09-03T07:28:48;2.70;;;1.67;;
71464;SDS011;59274;49.874;9.154;2022-09-03T07:31:15;5.10;;;1.90;;
71464;SDS011;59274;49.874;9.154;2022-09-03T07:33:44;2.70;;;1.65;;
71464;SDS011;59274;49.874;9.154;2022-09-03T07:36:11;5.03;;;1.73;;
71464;SDS011;59274;49.874;9.154;2022-09-03T07:38:39;4.20;;;1.50;;
71464;SDS011;59274;49.874;9.154;2022-09-03T07:41:06;3.63;;;1.60;;
71464;SDS011;59274;49.874;9.154;2022-09-03T07:43:34;3.97;;;1.70;;
71464;SDS011;59274;49.874;9.154;2022-09-03T07:46:14;3.20;;;1.60;;
71464;SDS011;59274;49.874;9.154;2022-09-03T07:48:46;2.25;;;1.35;;
71464;SDS011;59274;49.874;9.154;2022-09-03T07:51:13;3.03;;;1.50;;
71464;SDS011;59274;49.874;9.154;2022-09-03T07:53:39;4.30;;;1.70;;
71464;SDS011;59274;49.874;9.154;2022-09-03T07:56:05;3.23;;;1.40;;
71464;SDS011;59274;49.874;9.154;2022-09-03T07:58:33;3.63;;;1.70;;
71464;SDS011;59274;49.874;9.154;2022-09-03T08:01:07;4.43;;;1.67;;
71464;SDS011;59274;49.874;9.154;2022-09-03T08:03:35;4.75;;;1.70;;
71464;SDS011;59274;49.874;9.154;2022-09-03T08:06:03;3.40;;;1.60;;
71464;SDS011;59274;49.874;9.154;2022-09-03T08:08:32;3.63;;;1.55;;
71464;SDS011;59274;49.874;9.154;2022-09-03T08:11:10;3.92;;;1.90;;
71464;SDS011;59274;49.874;9.154;2022-09-03T08:13:41;3.25;;;1.85;;
71464;SDS011;59274;49.874;9.154;2022-09-03T08:16:10;3.35;;;1.70;;
71464;SDS011;59274;49.874;9.154;2022-09-03T08:18:36;2.97;;;1.60;;
71464;SDS011;59274;49.874;9.154;2022-09-03T08:21:07;3.70;;;1.70;;
71464;SDS011;59274;49.874;9.154;2022-09-03T08:23:39;4.63;;;1.75;;
71464;SDS011;59274;49.874;9.154;2022-09-03T08:26:06;4.20;;;1.73;;
71464;SDS011;59274;49.874;9.154;2022-09-03T08:28:32;3.73;;;1.80;;
71464;SDS011;59274;49.874;9.154;2022-09-03T08:31:06;5.13;;;1.70;;
71464;SDS011;59274;49.874;9.154;2022-09-03T08:33:35;3.53;;;1.73;;
71464;SDS011;59274;49.874;9.154;2022-09-03T08:36:07;4.70;;;1.63;;
71464;SDS011;59274;49.874;9.154;2022-09-03T08:38:37;4.00;;;2.10;;
71464;SDS011;59274;49.874;9.154;2022-09-03T08:41:13;5.05;;;2.10;;
71464;SDS011;59274;49.874;9.154;2022-09-03T08:46:22;4.50;;;2.13;;
71464;SDS011;59274;49.874;9.154;2022-09-03T08:48:56;7.28;;;2.60;;
71464;SDS011;59274;49.874;9.154;2022-09-03T08:51:23;5.18;;;2.50;;
71464;SDS011;59274;49.874;9.154;2022-09-03T08:53:53;4.45;;;2.28;;
71464;SDS011;59274;49.874;9.154;2022-09-03T08:56:25;4.93;;;2.58;;
71464;SDS011;59274;49.874;9.154;2022-09-03T08:58:53;6.18;;;2.42;;
71464;SDS011;59274;49.874;9.154;2022-09-03T09:07:13;4.80;;;2.53;;
71464;SDS011;59274;49.874;9.154;2022-09-03T09:23:35;5.13;;;2.60;;
71464;SDS011;59274;49.874;9.154;2022-09-03T09:26:12;6.28;;;3.00;;
71464;SDS011;59274;49.874;9.154;2022-09-03T09:28:40;5.75;;;2.65;;
71464;SDS011;59274;49.874;9.154;2022-09-03T09:31:09;4.00;;;2.40;;
71464;SDS011;59274;49.874;9.154;2022-09-03T09:33:39;5.63;;;2.50;;
71464;SDS011;59274;49.874;9.154;2022-09-03T09:36:06;4.65;;;2.38;;
71464;SDS011;59274;49.874;9.154;2022-09-03T09:38:36;3.60;;;2.03;;
71464;SDS011;59274;49.874;9.154;2022-09-03T09:41:09;6.50;;;2.58;;
71464;SDS011;59274;49.874;9.154;2022-09-03T09:43:41;6.15;;;2.72;;
71464;SDS011;59274;49.874;9.154;2022-09-03T09:46:11;5.83;;;2.90;;
71464;SDS011;59274;49.874;9.154;2022-09-03T09:48:38;8.95;;;2.85;;
71464;SDS011;59274;49.874;9.154;2022-09-03T09:51:16;8.35;;;2.60;;
71464;SDS011;59274;49.874;9.154;2022-09-03T09:54:15;4.75;;;2.42;;
71464;SDS011;59274;49.874;9.154;2022-09-03T09:56:44;5.35;;;2.75;;
71464;SDS011;59274;49.874;9.154;2022-09-03T09:59:12;5.93;;;2.63;;
71464;SDS011;59274;49.874;9.154;2022-09-03T10:01:42;4.55;;;2.30;;
71464;SDS011;59274;49.874;9.154;2022-09-03T10:06:52;5.53;;;2.50;;
71464;SDS011;59274;49.874;9.154;2022-09-03T10:09:23;5.18;;;2.90;;
71464;SDS011;59274;49.874;9.154;2022-09-03T10:14:44;6.85;;;2.67;;
71464;SDS011;59274;49.874;9.154;2022-09-03T10:22:59;4.85;;;2.60;;
71464;SDS011;59274;49.874;9.154;2022-09-03T10:25:45;5.90;;;2.43;;
71464;SDS011;59274;49.874;9.154;2022-09-03T10:28:14;5.15;;;2.63;;
71464;SDS011;59274;49.874;9.154;2022-09-03T10:30:47;6.18;;;2.50;;
71464;SDS011;59274;49.874;9.154;2022-09-03T10:33:26;5.10;;;2.60;;
71464;SDS011;59274;49.874;9.154;2022-09-03T10:38:43;4.80;;;2.50;;
71464;SDS011;59274;49.874;9.154;2022-09-03T10:41:21;5.50;;;2.70;;
71464;SDS011;59274;49.874;9.154;2022-09-03T10:44:01;5.43;;;2.58;;
71464;SDS011;59274;49.874;9.154;2022-09-03T10:49:31;6.57;;;2.58;;
71464;SDS011;59274;49.874;9.154;2022-09-03T11:00:08;6.50;;;2.72;;
71464;SDS011;59274;49.874;9.154;2022-09-03T11:05:15;5.97;;;2.90;;
71464;SDS011;59274;49.874;9.154;2022-09-03T11:08:16;8.52;;;3.10;;
71464;SDS011;59274;49.874;9.154;2022-09-03T11:10:49;7.80;;;3.28;;
71464;SDS011;59274;49.874;9.154;2022-09-03T11:16:12;5.93;;;2.97;;
71464;SDS011;59274;49.874;9.154;2022-09-03T11:18:54;6.63;;;3.00;;
71464;SDS011;59274;49.874;9.154;2022-09-03T11:21:23;9.20;;;2.83;;
71464;SDS011;59274;49.874;9.154;2022-09-03T11:23:54;5.20;;;2.38;;
71464;SDS011;59274;49.874;9.154;2022-09-03T11:26:39;4.13;;;2.20;;
71464;SDS011;59274;49.874;9.154;2022-09-03T11:29:12;5.55;;;2.60;;
71464;SDS011;59274;49.874;9.154;2022-09-03T11:34:28;4.57;;;2.30;;
71464;SDS011;59274;49.874;9.154;2022-09-03T11:39:52;4.82;;;2.42;;
71464;SDS011;59274;49.874;9.154;2022-09-03T11:42:26;4.03;;;2.22;;
71464;SDS011;59274;49.874;9.154;2022-09-03T11:44:58;4.23;;;2.30;;
71464;SDS011;59274;49.874;9.154;2022-09-03T11:47:38;4.32;;;2.35;;
71464;SDS011;59274;49.874;9.154;2022-09-03T11:50:15;6.05;;;2.47;;
71464;SDS011;59274;49.874;9.154;2022-09-03T11:52:47;4.38;;;2.10;;
71464;SDS011;59274;49.874;9.154;2022-09-03T11:55:25;5.50;;;2.55;;
71464;SDS011;59274;49.874;9.154;2022-09-03T11:57:56;6.10;;;2.43;;
71464;SDS011;59274;49.874;9.154;2022-09-03T12:00:22;5.50;;;2.20;;
71464;SDS011;59274;49.874;9.154;2022-09-03T12:02:54;3.90;;;2.22;;
71464;SDS011;59274;49.874;9.154;2022-09-03T12:19:03;4.30;;;2.17;;
71464;SDS011;59274;49.874;9.154;2022-09-03T12:21:38;4.38;;;2.40;;
71464;SDS011;59274;49.874;9.154;2022-09-03T12:24:05;3.97;;;2.10;;
71464;SDS011;59274;49.874;9.154;2022-09-03T12:26:39;4.13;;;2.10;;
71464;SDS011;59274;49.874;9.154;2022-09-03T12:29:10;5.10;;;2.20;;
71464;SDS011;59274;49.874;9.154;2022-09-03T12:31:46;5.15;;;2.30;;
71464;SDS011;59274;49.874;9.154;2022-09-03T12:34:15;3.30;;;2.17;;
71464;SDS011;59274;49.874;9.154;2022-09-03T12:36:49;5.23;;;2.20;;
71464;SDS011;59274;49.874;9.154;2022-09-03T12:39:23;4.55;;;2.10;;
71464;SDS011;59274;49.874;9.154;2022-09-03T12:41:53;3.50;;;2.17;;
71464;SDS011;59274;49.874;9.154;2022-09-03T12:44:29;3.05;;;1.95;;
71464;SDS011;59274;49.874;9.154;2022-09-03T12:47:04;3.72;;;2.22;;
71464;SDS011;59274;49.874;9.154;2022-09-03T12:49:33;5.93;;;2.23;;
71464;SDS011;59274;49.874;9.154;2022-09-03T12:52:06;4.10;;;2.00;;
71464;SDS011;59274;49.874;9.154;2022-09-03T12:54:38;5.25;;;2.05;;
71464;SDS011;59274;49.874;9.154;2022-09-03T12:57:08;4.32;;;2.20;;
71464;SDS011;59274;49.874;9.154;2022-09-03T12:59:34;4.00;;;2.10;;
71464;SDS011;59274;49.874;9.154;2022-09-03T13:02:04;5.25;;;2.33;;
71464;SDS011;59274;49.874;9.154;2022-09-03T13:04:38;3.97;;;2.10;;
71464;SDS011;59274;49.874;9.154;2022-09-03T13:07:05;6.35;;;2.50;;
71464;SDS011;59274;49.874;9.154;2022-09-03T13:09:37;4.20;;;2.40;;
71464;SDS011;59274;49.874;9.154;2022-09-03T13:12:05;5.05;;;2.08;;
71464;SDS011;59274;49.874;9.154;2022-09-03T13:14:41;3.28;;;1.90;;
71464;SDS011;59274;49.874;9.154;2022-09-03T13:20:08;4.10;;;2.10;;
71464;SDS011;59274;49.874;9.154;2022-09-03T13:23:03;2.93;;;1.83;;
71464;SDS011;59274;49.874;9.154;2022-09-03T13:25:46;4.10;;;2.22;;
71464;SDS011;59274;49.874;9.154;2022-09-03T13:28:41;4.60;;;2.00;;
71464;SDS011;59274;49.874;9.154;2022-09-03T13:37:28;2.80;;;1.80;;
71464;SDS011;59274;49.874;9.154;2022-09-03T13:40:08;2.80;;;2.00;;
71464;SDS011;59274;49.874;9.154;2022-09-03T13:42:40;4.47;;;1.80;;
71464;SDS011;59274;49.874;9.154;2022-09-03T13:47:58;3.38;;;1.90;;
71464;SDS011;59274;49.874;9.154;2022-09-03T13:50:58;3.83;;;1.80;;
71464;SDS011;59274;49.874;9.154;2022-09-03T13:53:35;2.30;;;1.77;;
71464;SDS011;59274;49.874;9.154;2022-09-03T13:56:20;1.95;;;1.52;;
71464;SDS011;59274;49.874;9.154;2022-09-03T13:58:55;3.50;;;1.80;;
71464;SDS011;59274;49.874;9.154;2022-09-03T14:04:32;2.03;;;1.50;;
71464;SDS011;59274;49.874;9.154;2022-09-03T14:07:14;2.72;;;1.60;;
71464;SDS011;59274;49.874;9.154;2022-09-03T14:09:50;2.55;;;1.60;;
71464;SDS011;59274;49.874;9.154;2022-09-03T14:15:00;2.65;;;1.58;;
71464;SDS011;59274;49.874;9.154;2022-09-03T14:19:57;2.50;;;1.40;;
71464;SDS011;59274;49.874;9.154;2022-09-03T14:22:31;2.55;;;1.38;;
71464;SDS011;59274;49.874;9.154;2022-09-03T14:25:08;1.63;;;1.33;;
71464;SDS011;59274;49.874;9.154;2022-09-03T14:27:38;2.15;;;1.60;;
71464;SDS011;59274;49.874;9.154;2022-09-03T14:30:05;2.20;;;1.43;;
71464;SDS011;59274;49.874;9.154;2022-09-03T14:38:31;2.33;;;1.67;;
71464;SDS011;59274;49.874;9.154;2022-09-03T15:00:17;3.25;;;2.20;;
71464;SDS011;59274;49.874;9.154;2022-09-03T15:05:46;4.57;;;2.67;;
71464;SDS011;59274;49.874;9.154;2022-09-03T15:10:58;2.85;;;2.00;;
71464;SDS011;59274;49.874;9.154;2022-09-03T15:13:30;4.65;;;2.20;;
71464;SDS011;59274;49.874;9.154;2022-09-03T15:24:25;3.25;;;1.70;;
71464;SDS011;59274;49.874;9.154;2022-09-03T15:30:17;3.42;;;2.20;;
71464;SDS011;59274;49.874;9.154;2022-09-03T15:43:59;2.83;;;1.70;;
71464;SDS011;59274;49.874;9.154;2022-09-03T15:51:34;2.25;;;1.70;;
71464;SDS011;59274;49.874;9.154;2022-09-03T15:54:18;2.85;;;2.03;;
71464;SDS011;59274;49.874;9.154;2022-09-03T15:57:01;3.47;;;1.95;;
71464;SDS011;59274;49.874;9.154;2022-09-03T15:59:34;1.90;;;1.40;;
71464;SDS011;59274;49.874;9.154;2022-09-03T16:04:41;2.28;;;1.83;;
71464;SDS011;59274;49.874;9.154;2022-09-03T16:15:26;2.22;;;1.30;;
71464;SDS011;59274;49.874;9.154;2022-09-03T16:18:00;2.03;;;1.50;;
71464;SDS011;59274;49.874;9.154;2022-09-03T16:20:32;2.22;;;1.50;;
71464;SDS011;59274;49.874;9.154;2022-09-03T16:23:15;2.58;;;1.70;;
71464;SDS011;59274;49.874;9.154;2022-09-03T16:25:49;1.75;;;1.40;;
71464;SDS011;59274;49.874;9.154;2022-09-03T16:28:27;2.47;;;1.60;;
71464;SDS011;59274;49.874;9.154;2022-09-03T16:33:41;2.20;;;1.48;;
71464;SDS011;59274;49.874;9.154;2022-09-03T16:36:46;2.47;;;1.52;;
71464;SDS011;59274;49.874;9.154;2022-09-03T16:47:33;1.75;;;1.10;;
71464;SDS011;59274;49.874;9.154;2022-09-03T17:06:56;3.47;;;1.50;;
71464;SDS011;59274;49.874;9.154;2022-09-03T17:15:15;3.60;;;1.42;;
71464;SDS011;59274;49.874;9.154;2022-09-03T17:29:37;2.85;;;1.48;;
71464;SDS011;59274;49.874;9.154;2022-09-03T17:32:23;3.25;;;1.65;;
71464;SDS011;59274;49.874;9.154;2022-09-03T17:35:16;2.00;;;1.15;;
71464;SDS011;59274;49.874;9.154;2022-09-03T17:43:17;5.47;;;1.48;;
71464;SDS011;59274;49.874;9.154;2022-09-03T17:49:12;4.10;;;1.80;;
71464;SDS011;59274;49.874;9.154;2022-09-03T17:51:57;3.25;;;1.92;;
71464;SDS011;59274;49.874;9.154;2022-09-03T17:54:39;3.65;;;1.90;;
71464;SDS011;59274;49.874;9.154;2022-09-03T17:57:28;4.40;;;2.20;;
71464;SDS011;59274;49.874;9.154;2022-09-03T18:00:00;3.88;;;1.95;;
71464;SDS011;59274;49.874;9.154;2022-09-03T18:02:32;4.70;;;1.80;;
71464;SDS011;59274;49.874;9.154;2022-09-03T18:16:08;3.50;;;2.10;;
71464;SDS011;59274;49.874;9.154;2022-09-03T18:18:44;4.18;;;1.90;;
71464;SDS011;59274;49.874;9.154;2022-09-03T18:21:13;4.45;;;2.17;;
71464;SDS011;59274;49.874;9.154;2022-09-03T18:30:28;5.80;;;2.28;;
71464;SDS011;59274;49.874;9.154;2022-09-03T18:33:12;4.30;;;2.40;;
71464;SDS011;59274;49.874;9.154;2022-09-03T18:36:00;3.55;;;2.10;;
71464;SDS011;59274;49.874;9.154;2022-09-03T18:38:45;3.45;;;2.22;;
71464;SDS011;59274;49.874;9.154;2022-09-03T18:56:35;3.78;;;1.90;;
71464;SDS011;59274;49.874;9.154;2022-09-03T19:05:54;4.75;;;2.10;;
71464;SDS011;59274;49.874;9.154;2022-09-03T19:14:52;4.80;;;2.33;;
71464;SDS011;59274;49.874;9.154;2022-09-03T19:20:54;5.30;;;2.13;;
71464;SDS011;59274;49.874;9.154;2022-09-03T19:23:45;5.63;;;2.42;;
71464;SDS011;59274;49.874;9.154;2022-09-03T19:29:37;4.90;;;2.65;;
71464;SDS011;59274;49.874;9.154;2022-09-03T19:32:25;4.00;;;2.38;;
71464;SDS011;59274;49.874;9.154;2022-09-03T19:35:22;4.78;;;2.40;;
71464;SDS011;59274;49.874;9.154;2022-09-03T19:41:47;5.22;;;2.40;;
71464;SDS011;59274;49.874;9.154;2022-09-03T19:51:15;6.53;;;2.50;;
71464;SDS011;59274;49.874;9.154;2022-09-03T19:54:03;6.50;;;2.80;;
71464;SDS011;59274;49.874;9.154;2022-09-03T19:56:49;4.13;;;2.25;;
71464;SDS011;59274;49.874;9.154;2022-09-03T19:59:38;4.72;;;2.55;;
71464;SDS011;59274;49.874;9.154;2022-09-03T20:02:23;5.57;;;2.55;;
71464;SDS011;59274;49.874;9.154;2022-09-03T20:05:18;4.45;;;2.50;;
71464;SDS011;59274;49.874;9.154;2022-09-03T20:08:03;4.90;;;2.38;;
71464;SDS011;59274;49.874;9.154;2022-09-03T20:10:49;5.05;;;2.50;;
71464;SDS011;59274;49.874;9.154;2022-09-03T20:13:18;4.90;;;2.60;;
71464;SDS011;59274;49.874;9.154;2022-09-03T20:16:07;3.47;;;2.28;;
71464;SDS011;59274;49.874;9.154;2022-09-03T20:21:16;5.05;;;2.33;;
71464;SDS011;59274;49.874;9.154;2022-09-03T20:32:02;4.05;;;2.50;;
71464;SDS011;59274;49.874;9.154;2022-09-03T20:35:13;4.25;;;2.20;;
71464;SDS011;59274;49.874;9.154;2022-09-03T20:45:42;5.60;;;2.53;;
71464;SDS011;59274;49.874;9.154;2022-09-03T20:51:19;4.82;;;2.47;;
71464;SDS011;59274;49.874;9.154;2022-09-03T21:07:38;5.10;;;2.78;;
71464;SDS011;59274;49.874;9.154;2022-09-03T21:25:06;5.97;;;2.90;;
71464;SDS011;59274;49.874;9.154;2022-09-03T21:27:47;5.13;;;2.88;;
71464;SDS011;59274;49.874;9.154;2022-09-03T21:30:18;5.88;;;3.20;;
71464;SDS011;59274;49.874;9.154;2022-09-03T21:35:59;5.95;;;3.17;;
71464;SDS011;59274;49.874;9.154;2022-09-03T21:38:32;7.07;;;3.20;;
71464;SDS011;59274;49.874;9.154;2022-09-03T21:41:04;6.38;;;3.50;;
71464;SDS011;59274;49.874;9.154;2022-09-03T21:46:22;6.47;;;3.00;;
71464;SDS011;59274;49.874;9.154;2022-09-03T21:48:55;5.95;;;3.15;;
71464;SDS011;59274;49.874;9.154;2022-09-03T21:52:26;5.77;;;3.13;;
71464;SDS011;59274;49.874;9.154;2022-09-03T22:00:01;5.93;;;3.35;;
71464;SDS011;59274;49.874;9.154;2022-09-03T22:02:33;5.53;;;3.40;;
71464;SDS011;59274;49.874;9.154;2022-09-03T22:05:00;5.87;;;3.13;;